sensor_id;sensor_type;location;lat;lon;timestamp;P1;durP1;ratioP1;P2;durP2;ratioP2
24273;SDS011;12392;42.678;23.380;2023-08-21T00:01:31;16.98;;;7.32;;
24273;SDS011;12392;42.678;23.380;2023-08-21T00:03:57;16.73;;;6.70;;
24273;SDS011;12392;42.678;23.380;2023-08-21T00:06:22;14.82;;;6.45;;
24273;SDS011;12392;42.678;23.380;2023-08-21T00:08:48;17.58;;;7.45;;
24273;SDS011;12392;42.678;23.380;2023-08-21T00:11:14;10.27;;;6.65;;
24273;SDS011;12392;42.678;23.380;2023-08-21T00:13:39;13.23;;;6.45;;
24273;SDS011;12392;42.678;23.380;2023-08-21T00:16:08;10.75;;;6.68;;
24273;SDS011;12392;42.678;23.380;2023-08-21T00:18:33;10.38;;;6.80;;
24273;SDS011;12392;42.678;23.380;2023-08-21T00:20:59;12.10;;;7.15;;
24273;SDS011;12392;42.678;23.380;2023-08-21T00:23:25;11.30;;;6.93;;
24273;SDS011;12392;42.678;23.380;2023-08-21T00:25:50;10.18;;;6.47;;
24273;SDS011;12392;42.678;23.380;2023-08-21T00:28:16;11.43;;;6.88;;
24273;SDS011;12392;42.678;23.380;2023-08-21T00:30:42;17.83;;;6.80;;
24273;SDS011;12392;42.678;23.380;2023-08-21T00:33:08;13.63;;;6.35;;
24273;SDS011;12392;42.678;23.380;2023-08-21T00:35:33;13.45;;;6.95;;
24273;SDS011;12392;42.678;23.380;2023-08-21T00:37:59;9.30;;;6.35;;
24273;SDS011;12392;42.678;23.380;2023-08-21T00:40:25;8.50;;;6.20;;
24273;SDS011;12392;42.678;23.380;2023-08-21T00:42:50;10.32;;;6.45;;
24273;SDS011;12392;42.678;23.380;2023-08-21T00:45:16;16.67;;;6.78;;
24273;SDS011;12392;42.678;23.380;2023-08-21T00:47:42;10.40;;;6.78;;
24273;SDS011;12392;42.678;23.380;2023-08-21T00:50:08;11.23;;;6.45;;
24273;SDS011;12392;42.678;23.380;2023-08-21T00:52:36;12.90;;;7.20;;
24273;SDS011;12392;42.678;23.380;2023-08-21T00:55:06;11.60;;;6.55;;
24273;SDS011;12392;42.678;23.380;2023-08-21T00:57:32;11.52;;;6.60;;
24273;SDS011;12392;42.678;23.380;2023-08-21T00:59:59;9.32;;;6.70;;
24273;SDS011;12392;42.678;23.380;2023-08-21T01:02:26;9.18;;;6.55;;
24273;SDS011;12392;42.678;23.380;2023-08-21T01:04:52;10.90;;;6.57;;
24273;SDS011;12392;42.678;23.380;2023-08-21T01:07:18;12.45;;;6.85;;
24273;SDS011;12392;42.678;23.380;2023-08-21T01:09:45;12.45;;;6.90;;
24273;SDS011;12392;42.678;23.380;2023-08-21T01:12:22;11.18;;;7.25;;
24273;SDS011;12392;42.678;23.380;2023-08-21T01:14:53;12.73;;;6.35;;
24273;SDS011;12392;42.678;23.380;2023-08-21T01:17:24;8.57;;;6.47;;
24273;SDS011;12392;42.678;23.380;2023-08-21T01:19:51;8.93;;;6.88;;
24273;SDS011;12392;42.678;23.380;2023-08-21T01:22:17;14.07;;;6.97;;
24273;SDS011;12392;42.678;23.380;2023-08-21T01:24:43;10.95;;;6.93;;
24273;SDS011;12392;42.678;23.380;2023-08-21T01:27:09;11.60;;;7.28;;
24273;SDS011;12392;42.678;23.380;2023-08-21T01:29:35;7.95;;;6.57;;
24273;SDS011;12392;42.678;23.380;2023-08-21T01:32:09;11.43;;;6.50;;
24273;SDS011;12392;42.678;23.380;2023-08-21T01:34:41;13.25;;;6.20;;
24273;SDS011;12392;42.678;23.380;2023-08-21T01:37:07;10.95;;;6.97;;
24273;SDS011;12392;42.678;23.380;2023-08-21T01:39:33;9.65;;;6.10;;
24273;SDS011;12392;42.678;23.380;2023-08-21T01:41:59;15.57;;;6.30;;
24273;SDS011;12392;42.678;23.380;2023-08-21T01:44:25;8.43;;;6.60;;
24273;SDS011;12392;42.678;23.380;2023-08-21T01:46:51;11.25;;;6.65;;
24273;SDS011;12392;42.678;23.380;2023-08-21T01:49:18;10.82;;;6.57;;
24273;SDS011;12392;42.678;23.380;2023-08-21T01:51:44;8.23;;;6.45;;
24273;SDS011;12392;42.678;23.380;2023-08-21T01:54:10;11.00;;;6.25;;
24273;SDS011;12392;42.678;23.380;2023-08-21T01:56:36;11.32;;;6.53;;
24273;SDS011;12392;42.678;23.380;2023-08-21T01:59:02;9.85;;;7.03;;
24273;SDS011;12392;42.678;23.380;2023-08-21T02:01:28;14.63;;;6.57;;
24273;SDS011;12392;42.678;23.380;2023-08-21T02:03:54;11.73;;;6.55;;
24273;SDS011;12392;42.678;23.380;2023-08-21T02:06:20;10.65;;;6.50;;
24273;SDS011;12392;42.678;23.380;2023-08-21T02:08:45;7.97;;;6.40;;
24273;SDS011;12392;42.678;23.380;2023-08-21T02:11:11;8.48;;;6.03;;
24273;SDS011;12392;42.678;23.380;2023-08-21T02:13:37;11.23;;;6.70;;
24273;SDS011;12392;42.678;23.380;2023-08-21T02:16:02;10.35;;;7.03;;
24273;SDS011;12392;42.678;23.380;2023-08-21T02:18:28;12.07;;;6.53;;
24273;SDS011;12392;42.678;23.380;2023-08-21T02:20:54;9.70;;;6.68;;
24273;SDS011;12392;42.678;23.380;2023-08-21T02:23:20;13.15;;;6.70;;
24273;SDS011;12392;42.678;23.380;2023-08-21T02:25:45;13.82;;;6.72;;
24273;SDS011;12392;42.678;23.380;2023-08-21T02:28:11;10.13;;;6.93;;
24273;SDS011;12392;42.678;23.380;2023-08-21T02:30:39;15.15;;;7.55;;
24273;SDS011;12392;42.678;23.380;2023-08-21T02:33:08;10.32;;;6.97;;
24273;SDS011;12392;42.678;23.380;2023-08-21T02:35:34;10.93;;;6.82;;
24273;SDS011;12392;42.678;23.380;2023-08-21T02:38:00;10.23;;;6.22;;
24273;SDS011;12392;42.678;23.380;2023-08-21T02:40:26;12.95;;;7.20;;
24273;SDS011;12392;42.678;23.380;2023-08-21T02:42:52;8.82;;;6.57;;
24273;SDS011;12392;42.678;23.380;2023-08-21T02:45:17;12.32;;;6.95;;
24273;SDS011;12392;42.678;23.380;2023-08-21T02:47:44;10.02;;;6.93;;
24273;SDS011;12392;42.678;23.380;2023-08-21T02:50:10;13.75;;;7.28;;
24273;SDS011;12392;42.678;23.380;2023-08-21T02:52:36;12.80;;;6.82;;
24273;SDS011;12392;42.678;23.380;2023-08-21T02:55:02;11.80;;;6.70;;
24273;SDS011;12392;42.678;23.380;2023-08-21T02:57:28;8.13;;;6.93;;
24273;SDS011;12392;42.678;23.380;2023-08-21T02:59:54;8.20;;;6.80;;
24273;SDS011;12392;42.678;23.380;2023-08-21T03:02:20;14.25;;;6.78;;
24273;SDS011;12392;42.678;23.380;2023-08-21T03:04:46;9.63;;;6.55;;
24273;SDS011;12392;42.678;23.380;2023-08-21T03:07:12;11.10;;;6.80;;
24273;SDS011;12392;42.678;23.380;2023-08-21T03:09:38;10.50;;;7.10;;
24273;SDS011;12392;42.678;23.380;2023-08-21T03:12:05;12.40;;;6.38;;
24273;SDS011;12392;42.678;23.380;2023-08-21T03:14:31;9.50;;;6.70;;
24273;SDS011;12392;42.678;23.380;2023-08-21T03:16:57;15.00;;;7.75;;
24273;SDS011;12392;42.678;23.380;2023-08-21T03:19:23;8.93;;;7.25;;
24273;SDS011;12392;42.678;23.380;2023-08-21T03:21:48;9.90;;;6.72;;
24273;SDS011;12392;42.678;23.380;2023-08-21T03:24:14;14.93;;;7.28;;
24273;SDS011;12392;42.678;23.380;2023-08-21T03:26:40;8.93;;;6.68;;
24273;SDS011;12392;42.678;23.380;2023-08-21T03:29:05;9.52;;;7.15;;
24273;SDS011;12392;42.678;23.380;2023-08-21T03:31:31;15.68;;;7.20;;
24273;SDS011;12392;42.678;23.380;2023-08-21T03:33:57;12.60;;;7.00;;
24273;SDS011;12392;42.678;23.380;2023-08-21T03:36:23;12.50;;;7.22;;
24273;SDS011;12392;42.678;23.380;2023-08-21T03:38:58;15.90;;;7.82;;
24273;SDS011;12392;42.678;23.380;2023-08-21T03:41:25;13.00;;;7.05;;
24273;SDS011;12392;42.678;23.380;2023-08-21T03:43:50;12.18;;;6.95;;
24273;SDS011;12392;42.678;23.380;2023-08-21T03:46:16;11.80;;;6.72;;
24273;SDS011;12392;42.678;23.380;2023-08-21T03:48:42;9.52;;;8.00;;
24273;SDS011;12392;42.678;23.380;2023-08-21T03:51:07;9.57;;;6.97;;
24273;SDS011;12392;42.678;23.380;2023-08-21T03:53:33;10.93;;;7.30;;
24273;SDS011;12392;42.678;23.380;2023-08-21T03:55:59;12.13;;;7.53;;
24273;SDS011;12392;42.678;23.380;2023-08-21T03:58:24;8.70;;;6.55;;
24273;SDS011;12392;42.678;23.380;2023-08-21T04:00:51;14.90;;;7.07;;
24273;SDS011;12392;42.678;23.380;2023-08-21T04:03:17;10.10;;;7.57;;
24273;SDS011;12392;42.678;23.380;2023-08-21T04:05:43;11.77;;;7.35;;
24273;SDS011;12392;42.678;23.380;2023-08-21T04:08:09;9.52;;;6.72;;
24273;SDS011;12392;42.678;23.380;2023-08-21T04:10:34;7.78;;;6.97;;
24273;SDS011;12392;42.678;23.380;2023-08-21T04:13:00;14.70;;;7.55;;
24273;SDS011;12392;42.678;23.380;2023-08-21T04:15:26;9.15;;;7.20;;
24273;SDS011;12392;42.678;23.380;2023-08-21T04:17:52;13.95;;;7.45;;
24273;SDS011;12392;42.678;23.380;2023-08-21T04:20:19;10.32;;;7.38;;
24273;SDS011;12392;42.678;23.380;2023-08-21T04:22:46;12.23;;;7.72;;
24273;SDS011;12392;42.678;23.380;2023-08-21T04:25:12;11.68;;;7.53;;
24273;SDS011;12392;42.678;23.380;2023-08-21T04:27:38;13.60;;;7.68;;
24273;SDS011;12392;42.678;23.380;2023-08-21T04:30:04;10.73;;;7.53;;
24273;SDS011;12392;42.678;23.380;2023-08-21T04:32:30;10.23;;;7.15;;
24273;SDS011;12392;42.678;23.380;2023-08-21T04:34:56;14.48;;;7.13;;
24273;SDS011;12392;42.678;23.380;2023-08-21T04:37:22;15.90;;;7.38;;
24273;SDS011;12392;42.678;23.380;2023-08-21T04:39:52;9.55;;;7.57;;
24273;SDS011;12392;42.678;23.380;2023-08-21T04:42:18;12.55;;;6.53;;
24273;SDS011;12392;42.678;23.380;2023-08-21T04:44:44;12.80;;;7.13;;
24273;SDS011;12392;42.678;23.380;2023-08-21T04:47:28;14.35;;;7.82;;
24273;SDS011;12392;42.678;23.380;2023-08-21T04:49:54;13.52;;;7.97;;
24273;SDS011;12392;42.678;23.380;2023-08-21T04:52:21;14.52;;;8.02;;
24273;SDS011;12392;42.678;23.380;2023-08-21T04:54:47;15.70;;;8.35;;
24273;SDS011;12392;42.678;23.380;2023-08-21T04:57:14;22.10;;;8.63;;
24273;SDS011;12392;42.678;23.380;2023-08-21T04:59:40;9.57;;;7.03;;
24273;SDS011;12392;42.678;23.380;2023-08-21T05:02:05;18.30;;;8.07;;
24273;SDS011;12392;42.678;23.380;2023-08-21T05:04:31;19.45;;;7.75;;
24273;SDS011;12392;42.678;23.380;2023-08-21T05:06:57;15.32;;;9.05;;
24273;SDS011;12392;42.678;23.380;2023-08-21T05:09:23;26.83;;;14.77;;
24273;SDS011;12392;42.678;23.380;2023-08-21T05:11:49;26.20;;;14.70;;
24273;SDS011;12392;42.678;23.380;2023-08-21T05:14:14;20.90;;;11.63;;
24273;SDS011;12392;42.678;23.380;2023-08-21T05:16:40;18.20;;;11.32;;
24273;SDS011;12392;42.678;23.380;2023-08-21T05:19:06;16.45;;;10.38;;
24273;SDS011;12392;42.678;23.380;2023-08-21T05:21:32;18.55;;;10.80;;
24273;SDS011;12392;42.678;23.380;2023-08-21T05:23:58;17.52;;;9.73;;
24273;SDS011;12392;42.678;23.380;2023-08-21T05:26:23;20.88;;;10.25;;
24273;SDS011;12392;42.678;23.380;2023-08-21T05:28:49;16.88;;;10.15;;
24273;SDS011;12392;42.678;23.380;2023-08-21T05:31:15;17.92;;;10.00;;
24273;SDS011;12392;42.678;23.380;2023-08-21T05:33:40;23.42;;;9.85;;
24273;SDS011;12392;42.678;23.380;2023-08-21T05:36:06;20.80;;;10.05;;
24273;SDS011;12392;42.678;23.380;2023-08-21T05:38:32;19.80;;;9.23;;
24273;SDS011;12392;42.678;23.380;2023-08-21T05:40:57;21.60;;;9.52;;
24273;SDS011;12392;42.678;23.380;2023-08-21T05:43:23;21.48;;;9.48;;
24273;SDS011;12392;42.678;23.380;2023-08-21T05:45:49;18.90;;;9.23;;
24273;SDS011;12392;42.678;23.380;2023-08-21T05:48:15;29.40;;;9.93;;
24273;SDS011;12392;42.678;23.380;2023-08-21T05:50:42;17.13;;;10.18;;
24273;SDS011;12392;42.678;23.380;2023-08-21T05:53:08;19.52;;;9.15;;
24273;SDS011;12392;42.678;23.380;2023-08-21T05:55:34;21.98;;;9.20;;
24273;SDS011;12392;42.678;23.380;2023-08-21T05:58:02;18.92;;;9.68;;
24273;SDS011;12392;42.678;23.380;2023-08-21T06:00:28;25.65;;;10.30;;
24273;SDS011;12392;42.678;23.380;2023-08-21T06:02:54;17.42;;;10.70;;
24273;SDS011;12392;42.678;23.380;2023-08-21T06:05:19;17.90;;;9.60;;
24273;SDS011;12392;42.678;23.380;2023-08-21T06:07:45;22.13;;;9.70;;
24273;SDS011;12392;42.678;23.380;2023-08-21T06:10:11;20.98;;;10.15;;
24273;SDS011;12392;42.678;23.380;2023-08-21T06:12:40;23.33;;;10.20;;
24273;SDS011;12392;42.678;23.380;2023-08-21T06:15:06;25.92;;;10.80;;
24273;SDS011;12392;42.678;23.380;2023-08-21T06:17:34;22.25;;;9.88;;
24273;SDS011;12392;42.678;23.380;2023-08-21T06:20:03;22.20;;;10.52;;
24273;SDS011;12392;42.678;23.380;2023-08-21T06:22:31;19.48;;;9.65;;
24273;SDS011;12392;42.678;23.380;2023-08-21T06:24:57;16.85;;;10.48;;
24273;SDS011;12392;42.678;23.380;2023-08-21T06:27:23;19.58;;;10.27;;
24273;SDS011;12392;42.678;23.380;2023-08-21T06:29:48;22.23;;;11.57;;
24273;SDS011;12392;42.678;23.380;2023-08-21T06:32:14;23.45;;;10.30;;
24273;SDS011;12392;42.678;23.380;2023-08-21T06:34:40;44.10;;;10.38;;
24273;SDS011;12392;42.678;23.380;2023-08-21T06:37:05;14.48;;;9.60;;
24273;SDS011;12392;42.678;23.380;2023-08-21T06:39:31;19.88;;;9.90;;
24273;SDS011;12392;42.678;23.380;2023-08-21T06:41:57;18.25;;;9.18;;
24273;SDS011;12392;42.678;23.380;2023-08-21T06:44:23;18.95;;;9.07;;
24273;SDS011;12392;42.678;23.380;2023-08-21T06:46:48;16.83;;;9.35;;
24273;SDS011;12392;42.678;23.380;2023-08-21T06:49:14;14.90;;;9.15;;
24273;SDS011;12392;42.678;23.380;2023-08-21T06:51:40;25.90;;;9.10;;
24273;SDS011;12392;42.678;23.380;2023-08-21T06:54:05;19.77;;;9.65;;
24273;SDS011;12392;42.678;23.380;2023-08-21T06:56:31;20.33;;;9.15;;
24273;SDS011;12392;42.678;23.380;2023-08-21T06:58:57;15.50;;;9.25;;
24273;SDS011;12392;42.678;23.380;2023-08-21T07:01:23;22.50;;;9.25;;
24273;SDS011;12392;42.678;23.380;2023-08-21T07:03:48;14.57;;;8.75;;
24273;SDS011;12392;42.678;23.380;2023-08-21T07:06:14;18.20;;;9.30;;
24273;SDS011;12392;42.678;23.380;2023-08-21T07:08:40;15.20;;;8.60;;
24273;SDS011;12392;42.678;23.380;2023-08-21T07:11:06;12.07;;;8.18;;
24273;SDS011;12392;42.678;23.380;2023-08-21T07:13:33;18.55;;;8.18;;
24273;SDS011;12392;42.678;23.380;2023-08-21T07:15:59;17.52;;;8.27;;
24273;SDS011;12392;42.678;23.380;2023-08-21T07:18:27;13.30;;;7.63;;
24273;SDS011;12392;42.678;23.380;2023-08-21T07:20:54;12.70;;;7.80;;
24273;SDS011;12392;42.678;23.380;2023-08-21T07:23:20;12.88;;;7.40;;
24273;SDS011;12392;42.678;23.380;2023-08-21T07:25:46;15.15;;;7.40;;
24273;SDS011;12392;42.678;23.380;2023-08-21T07:28:11;15.73;;;7.53;;
24273;SDS011;12392;42.678;23.380;2023-08-21T07:30:37;17.27;;;8.32;;
24273;SDS011;12392;42.678;23.380;2023-08-21T07:33:04;14.52;;;7.85;;
24273;SDS011;12392;42.678;23.380;2023-08-21T07:35:30;12.50;;;8.10;;
24273;SDS011;12392;42.678;23.380;2023-08-21T07:37:56;15.57;;;8.05;;
24273;SDS011;12392;42.678;23.380;2023-08-21T07:40:22;15.90;;;8.05;;
24273;SDS011;12392;42.678;23.380;2023-08-21T07:42:48;18.20;;;8.25;;
24273;SDS011;12392;42.678;23.380;2023-08-21T07:45:17;13.90;;;7.03;;
24273;SDS011;12392;42.678;23.380;2023-08-21T07:47:42;65.82;;;10.80;;
24273;SDS011;12392;42.678;23.380;2023-08-21T07:50:08;14.60;;;6.95;;
24273;SDS011;12392;42.678;23.380;2023-08-21T07:52:35;12.88;;;7.05;;
24273;SDS011;12392;42.678;23.380;2023-08-21T07:55:01;17.40;;;7.50;;
24273;SDS011;12392;42.678;23.380;2023-08-21T07:57:28;11.05;;;6.82;;
24273;SDS011;12392;42.678;23.380;2023-08-21T07:59:54;26.73;;;7.75;;
24273;SDS011;12392;42.678;23.380;2023-08-21T08:02:20;12.80;;;7.60;;
24273;SDS011;12392;42.678;23.380;2023-08-21T08:04:46;11.13;;;7.25;;
24273;SDS011;12392;42.678;23.380;2023-08-21T08:07:12;17.95;;;7.13;;
24273;SDS011;12392;42.678;23.380;2023-08-21T08:09:40;15.85;;;7.30;;
24273;SDS011;12392;42.678;23.380;2023-08-21T08:12:07;17.63;;;6.95;;
24273;SDS011;12392;42.678;23.380;2023-08-21T08:14:35;14.00;;;6.18;;
24273;SDS011;12392;42.678;23.380;2023-08-21T08:17:03;8.18;;;5.97;;
24273;SDS011;12392;42.678;23.380;2023-08-21T08:19:39;11.30;;;6.63;;
24273;SDS011;12392;42.678;23.380;2023-08-21T08:22:07;9.32;;;6.80;;
24273;SDS011;12392;42.678;23.380;2023-08-21T08:24:34;8.40;;;6.68;;
24273;SDS011;12392;42.678;23.380;2023-08-21T08:27:00;13.18;;;7.10;;
24273;SDS011;12392;42.678;23.380;2023-08-21T08:29:26;8.40;;;6.57;;
24273;SDS011;12392;42.678;23.380;2023-08-21T08:31:52;10.65;;;6.43;;
24273;SDS011;12392;42.678;23.380;2023-08-21T08:34:18;9.32;;;6.30;;
24273;SDS011;12392;42.678;23.380;2023-08-21T08:36:45;12.95;;;6.53;;
24273;SDS011;12392;42.678;23.380;2023-08-21T08:39:11;18.27;;;7.25;;
24273;SDS011;12392;42.678;23.380;2023-08-21T08:44:24;13.45;;;6.35;;
24273;SDS011;12392;42.678;23.380;2023-08-21T08:46:52;8.75;;;6.20;;
24273;SDS011;12392;42.678;23.380;2023-08-21T08:49:17;20.38;;;5.85;;
24273;SDS011;12392;42.678;23.380;2023-08-21T08:51:44;10.90;;;5.60;;
24273;SDS011;12392;42.678;23.380;2023-08-21T08:54:10;8.60;;;6.00;;
24273;SDS011;12392;42.678;23.380;2023-08-21T08:56:36;10.82;;;4.85;;
24273;SDS011;12392;42.678;23.380;2023-08-21T08:59:03;8.52;;;4.95;;
24273;SDS011;12392;42.678;23.380;2023-08-21T09:01:30;17.35;;;5.72;;
24273;SDS011;12392;42.678;23.380;2023-08-21T09:03:56;7.90;;;6.00;;
24273;SDS011;12392;42.678;23.380;2023-08-21T09:06:22;12.93;;;5.15;;
24273;SDS011;12392;42.678;23.380;2023-08-21T09:08:54;9.57;;;5.18;;
24273;SDS011;12392;42.678;23.380;2023-08-21T09:11:20;9.30;;;5.40;;
24273;SDS011;12392;42.678;23.380;2023-08-21T09:13:48;8.05;;;4.68;;
24273;SDS011;12392;42.678;23.380;2023-08-21T09:16:15;8.95;;;5.55;;
24273;SDS011;12392;42.678;23.380;2023-08-21T09:18:49;12.05;;;5.53;;
24273;SDS011;12392;42.678;23.380;2023-08-21T09:21:22;11.98;;;5.25;;
24273;SDS011;12392;42.678;23.380;2023-08-21T09:23:50;5.88;;;4.65;;
24273;SDS011;12392;42.678;23.380;2023-08-21T09:26:23;9.10;;;4.97;;
24273;SDS011;12392;42.678;23.380;2023-08-21T09:28:49;13.40;;;5.40;;
24273;SDS011;12392;42.678;23.380;2023-08-21T09:31:16;9.88;;;5.43;;
24273;SDS011;12392;42.678;23.380;2023-08-21T09:33:44;10.73;;;5.18;;
24273;SDS011;12392;42.678;23.380;2023-08-21T09:36:20;8.43;;;4.45;;
24273;SDS011;12392;42.678;23.380;2023-08-21T09:38:47;7.45;;;4.72;;
24273;SDS011;12392;42.678;23.380;2023-08-21T09:41:13;10.00;;;5.22;;
24273;SDS011;12392;42.678;23.380;2023-08-21T09:43:41;8.73;;;4.80;;
24273;SDS011;12392;42.678;23.380;2023-08-21T09:46:10;7.88;;;5.00;;
24273;SDS011;12392;42.678;23.380;2023-08-21T09:48:41;10.73;;;4.38;;
24273;SDS011;12392;42.678;23.380;2023-08-21T09:51:07;11.13;;;4.90;;
24273;SDS011;12392;42.678;23.380;2023-08-21T09:53:33;9.25;;;4.93;;
24273;SDS011;12392;42.678;23.380;2023-08-21T09:56:00;11.00;;;5.20;;
24273;SDS011;12392;42.678;23.380;2023-08-21T09:58:29;6.45;;;5.03;;
24273;SDS011;12392;42.678;23.380;2023-08-21T10:00:58;12.80;;;4.72;;
24273;SDS011;12392;42.678;23.380;2023-08-21T10:03:25;5.25;;;4.75;;
24273;SDS011;12392;42.678;23.380;2023-08-21T10:05:51;8.75;;;4.50;;
24273;SDS011;12392;42.678;23.380;2023-08-21T10:08:21;8.32;;;4.75;;
24273;SDS011;12392;42.678;23.380;2023-08-21T10:10:49;5.47;;;4.68;;
24273;SDS011;12392;42.678;23.380;2023-08-21T10:13:15;7.75;;;4.90;;
24273;SDS011;12392;42.678;23.380;2023-08-21T10:15:41;15.07;;;4.78;;
24273;SDS011;12392;42.678;23.380;2023-08-21T10:18:17;10.30;;;4.40;;
24273;SDS011;12392;42.678;23.380;2023-08-21T10:20:44;7.50;;;4.40;;
24273;SDS011;12392;42.678;23.380;2023-08-21T10:23:10;8.35;;;5.95;;
24273;SDS011;12392;42.678;23.380;2023-08-21T10:25:49;11.88;;;5.07;;
24273;SDS011;12392;42.678;23.380;2023-08-21T10:28:20;7.25;;;4.55;;
24273;SDS011;12392;42.678;23.380;2023-08-21T10:30:46;8.50;;;5.05;;
24273;SDS011;12392;42.678;23.380;2023-08-21T10:33:12;11.55;;;4.90;;
24273;SDS011;12392;42.678;23.380;2023-08-21T10:35:37;4.50;;;4.10;;
24273;SDS011;12392;42.678;23.380;2023-08-21T10:40:41;7.13;;;4.78;;
24273;SDS011;12392;42.678;23.380;2023-08-21T10:46:06;9.40;;;5.13;;
24273;SDS011;12392;42.678;23.380;2023-08-21T10:48:32;6.75;;;4.03;;
24273;SDS011;12392;42.678;23.380;2023-08-21T10:50:59;6.97;;;3.85;;
24273;SDS011;12392;42.678;23.380;2023-08-21T10:53:28;10.98;;;4.18;;
24273;SDS011;12392;42.678;23.380;2023-08-21T10:55:53;9.02;;;4.47;;
24273;SDS011;12392;42.678;23.380;2023-08-21T10:58:19;9.98;;;4.75;;
24273;SDS011;12392;42.678;23.380;2023-08-21T11:00:45;15.57;;;4.72;;
24273;SDS011;12392;42.678;23.380;2023-08-21T11:03:11;8.88;;;4.95;;
24273;SDS011;12392;42.678;23.380;2023-08-21T11:05:36;10.45;;;4.70;;
24273;SDS011;12392;42.678;23.380;2023-08-21T11:08:02;7.90;;;4.60;;
24273;SDS011;12392;42.678;23.380;2023-08-21T11:10:30;12.07;;;4.50;;
24273;SDS011;12392;42.678;23.380;2023-08-21T11:12:57;11.38;;;4.72;;
24273;SDS011;12392;42.678;23.380;2023-08-21T11:15:28;8.10;;;4.82;;
24273;SDS011;12392;42.678;23.380;2023-08-21T11:18:00;11.02;;;4.53;;
24273;SDS011;12392;42.678;23.380;2023-08-21T11:20:30;9.98;;;4.38;;
24273;SDS011;12392;42.678;23.380;2023-08-21T11:22:57;6.30;;;4.57;;
24273;SDS011;12392;42.678;23.380;2023-08-21T11:25:32;10.90;;;4.45;;
24273;SDS011;12392;42.678;23.380;2023-08-21T11:27:58;5.45;;;4.45;;
24273;SDS011;12392;42.678;23.380;2023-08-21T11:30:26;5.03;;;4.50;;
24273;SDS011;12392;42.678;23.380;2023-08-21T11:33:04;6.75;;;4.40;;
24273;SDS011;12392;42.678;23.380;2023-08-21T11:35:34;12.32;;;4.70;;
24273;SDS011;12392;42.678;23.380;2023-08-21T11:38:00;9.75;;;4.55;;
24273;SDS011;12392;42.678;23.380;2023-08-21T11:40:25;6.88;;;4.28;;
24273;SDS011;12392;42.678;23.380;2023-08-21T11:42:51;35.00;;;5.78;;
24273;SDS011;12392;42.678;23.380;2023-08-21T11:45:20;8.02;;;4.50;;
24273;SDS011;12392;42.678;23.380;2023-08-21T11:47:46;7.78;;;4.75;;
24273;SDS011;12392;42.678;23.380;2023-08-21T11:50:12;4.47;;;3.83;;
24273;SDS011;12392;42.678;23.380;2023-08-21T11:52:43;5.13;;;4.38;;
24273;SDS011;12392;42.678;23.380;2023-08-21T11:55:08;5.05;;;4.47;;
24273;SDS011;12392;42.678;23.380;2023-08-21T11:57:50;6.05;;;4.10;;
24273;SDS011;12392;42.678;23.380;2023-08-21T12:00:17;11.32;;;4.30;;
24273;SDS011;12392;42.678;23.380;2023-08-21T12:02:54;6.03;;;4.30;;
24273;SDS011;12392;42.678;23.380;2023-08-21T12:05:25;7.00;;;3.97;;
24273;SDS011;12392;42.678;23.380;2023-08-21T12:07:52;10.75;;;4.72;;
24273;SDS011;12392;42.678;23.380;2023-08-21T12:12:50;11.30;;;4.50;;
24273;SDS011;12392;42.678;23.380;2023-08-21T12:15:16;5.70;;;4.15;;
24273;SDS011;12392;42.678;23.380;2023-08-21T12:17:42;7.28;;;4.47;;
24273;SDS011;12392;42.678;23.380;2023-08-21T12:20:08;5.88;;;4.20;;
24273;SDS011;12392;42.678;23.380;2023-08-21T12:22:36;7.32;;;4.50;;
24273;SDS011;12392;42.678;23.380;2023-08-21T12:25:05;8.40;;;4.55;;
24273;SDS011;12392;42.678;23.380;2023-08-21T12:27:32;8.45;;;4.25;;
24273;SDS011;12392;42.678;23.380;2023-08-21T12:29:57;7.50;;;4.20;;
24273;SDS011;12392;42.678;23.380;2023-08-21T12:32:23;6.75;;;4.43;;
24273;SDS011;12392;42.678;23.380;2023-08-21T12:34:49;8.02;;;4.60;;
24273;SDS011;12392;42.678;23.380;2023-08-21T12:37:14;8.25;;;4.95;;
24273;SDS011;12392;42.678;23.380;2023-08-21T12:39:40;6.65;;;4.10;;
24273;SDS011;12392;42.678;23.380;2023-08-21T12:42:06;8.00;;;4.10;;
24273;SDS011;12392;42.678;23.380;2023-08-21T12:44:33;9.40;;;4.82;;
24273;SDS011;12392;42.678;23.380;2023-08-21T12:47:01;6.53;;;4.20;;
24273;SDS011;12392;42.678;23.380;2023-08-21T12:49:27;10.57;;;4.60;;
24273;SDS011;12392;42.678;23.380;2023-08-21T12:51:53;8.25;;;4.95;;
24273;SDS011;12392;42.678;23.380;2023-08-21T12:54:20;6.97;;;4.70;;
24273;SDS011;12392;42.678;23.380;2023-08-21T12:56:46;5.82;;;4.40;;
24273;SDS011;12392;42.678;23.380;2023-08-21T12:59:12;5.18;;;4.30;;
24273;SDS011;12392;42.678;23.380;2023-08-21T13:01:38;11.73;;;4.80;;
24273;SDS011;12392;42.678;23.380;2023-08-21T13:04:04;5.00;;;4.53;;
24273;SDS011;12392;42.678;23.380;2023-08-21T13:06:30;8.32;;;4.88;;
24273;SDS011;12392;42.678;23.380;2023-08-21T13:08:56;10.00;;;4.93;;
24273;SDS011;12392;42.678;23.380;2023-08-21T13:11:21;8.90;;;4.53;;
24273;SDS011;12392;42.678;23.380;2023-08-21T13:13:47;6.93;;;4.28;;
24273;SDS011;12392;42.678;23.380;2023-08-21T13:16:13;4.93;;;4.43;;
24273;SDS011;12392;42.678;23.380;2023-08-21T13:18:39;11.10;;;4.75;;
24273;SDS011;12392;42.678;23.380;2023-08-21T13:21:04;5.93;;;4.45;;
24273;SDS011;12392;42.678;23.380;2023-08-21T13:23:30;11.50;;;4.88;;
24273;SDS011;12392;42.678;23.380;2023-08-21T13:25:59;9.65;;;3.97;;
24273;SDS011;12392;42.678;23.380;2023-08-21T13:28:24;12.85;;;4.50;;
24273;SDS011;12392;42.678;23.380;2023-08-21T13:30:50;7.22;;;4.53;;
24273;SDS011;12392;42.678;23.380;2023-08-21T13:33:16;5.50;;;4.35;;
24273;SDS011;12392;42.678;23.380;2023-08-21T13:35:43;10.80;;;4.38;;
24273;SDS011;12392;42.678;23.380;2023-08-21T13:38:15;4.05;;;3.75;;
24273;SDS011;12392;42.678;23.380;2023-08-21T13:40:40;7.63;;;4.40;;
24273;SDS011;12392;42.678;23.380;2023-08-21T13:43:06;96.90;;;7.97;;
24273;SDS011;12392;42.678;23.380;2023-08-21T13:45:34;12.65;;;4.90;;
24273;SDS011;12392;42.678;23.380;2023-08-21T13:48:00;6.28;;;4.05;;
24273;SDS011;12392;42.678;23.380;2023-08-21T13:50:26;12.90;;;4.82;;
24273;SDS011;12392;42.678;23.380;2023-08-21T13:52:51;47.17;;;5.38;;
24273;SDS011;12392;42.678;23.380;2023-08-21T13:55:17;6.97;;;4.45;;
24273;SDS011;12392;42.678;23.380;2023-08-21T13:57:43;8.93;;;4.55;;
24273;SDS011;12392;42.678;23.380;2023-08-21T14:00:09;7.20;;;4.05;;
24273;SDS011;12392;42.678;23.380;2023-08-21T14:02:41;7.18;;;4.45;;
24273;SDS011;12392;42.678;23.380;2023-08-21T14:05:07;5.60;;;4.57;;
24273;SDS011;12392;42.678;23.380;2023-08-21T14:07:33;11.95;;;4.35;;
24273;SDS011;12392;42.678;23.380;2023-08-21T14:09:59;8.13;;;4.60;;
24273;SDS011;12392;42.678;23.380;2023-08-21T14:12:27;7.88;;;4.43;;
24273;SDS011;12392;42.678;23.380;2023-08-21T14:14:54;9.35;;;4.72;;
24273;SDS011;12392;42.678;23.380;2023-08-21T14:17:20;7.95;;;4.47;;
24273;SDS011;12392;42.678;23.380;2023-08-21T14:19:45;9.25;;;4.82;;
24273;SDS011;12392;42.678;23.380;2023-08-21T14:22:11;5.10;;;4.60;;
24273;SDS011;12392;42.678;23.380;2023-08-21T14:24:36;6.32;;;4.50;;
24273;SDS011;12392;42.678;23.380;2023-08-21T14:27:02;8.13;;;4.28;;
24273;SDS011;12392;42.678;23.380;2023-08-21T14:29:28;7.78;;;4.45;;
24273;SDS011;12392;42.678;23.380;2023-08-21T14:31:54;6.43;;;4.10;;
24273;SDS011;12392;42.678;23.380;2023-08-21T14:34:20;7.55;;;4.20;;